Time;durP1;ratioP1;P1;durP2;ratioP2;P2;SDS_P1;SDS_P2;PMS_P1;PMS_P2;Temp;Humidity;BMP_temperature;BMP_pressure;BME280_temperature;BME280_humidity;BME280_pressure;Samples;Min_cycle;Max_cycle;Signal;HPM_P1;HPM_P2
2022/06/23 00:01:14;;;;;;;8.43;5.20;;;;;;;24.92;48.20;100589.13;2107270;28;20031;-76
2022/06/23 00:02:39;;;;;;;6.97;4.97;;;;;;;24.92;48.20;100594.53;2110335;28;20093;-77
2022/06/23 00:04:02;;;;;;;7.82;5.03;;;;;;;24.91;47.96;100583.78;2094102;28;20044;-76
2022/06/23 00:05:26;;;;;;;7.82;5.50;;;;;;;24.89;48.36;100591.03;2105223;28;20043;-76
2022/06/23 00:06:55;;;;;;;9.75;5.40;;;;;;;24.88;48.54;100586.56;2103199;28;20062;-77
2022/06/23 00:08:16;;;;;;;7.68;5.03;;;;;;;24.86;48.49;100577.69;2105997;28;20039;-76
2022/06/23 00:09:41;;;;;;;7.38;4.95;;;;;;;24.86;48.16;100577.69;2116377;28;20055;-76
2022/06/23 00:11:05;;;;;;;7.60;5.13;;;;;;;24.84;48.13;100575.06;2105974;28;20065;-76
2022/06/23 00:12:32;;;;;;;9.27;5.43;;;;;;;24.85;48.04;100579.50;2085533;28;20415;-76
2022/06/23 00:14:06;;;;;;;9.55;5.32;;;;;;;24.87;48.22;100571.34;2110906;28;20051;-76
2022/06/23 00:15:31;;;;;;;11.55;5.25;;;;;;;24.86;48.13;100575.88;2107312;28;20628;-76
2022/06/23 00:16:52;;;;;;;8.48;5.32;;;;;;;24.79;48.43;100568.13;2094124;28;20101;-77
2022/06/23 00:18:19;;;;;;;9.20;5.88;;;;;;;24.73;48.38;100582.78;2102841;28;20097;-76
2022/06/23 00:19:41;;;;;;;9.02;5.80;;;;;;;24.71;48.39;100573.84;2098080;28;20101;-77
2022/06/23 00:21:10;;;;;;;9.45;5.28;;;;;;;24.70;48.57;100580.19;2092068;28;20056;-76
2022/06/23 00:22:33;;;;;;;7.45;4.78;;;;;;;24.62;48.92;100577.84;2092848;28;20484;-76
2022/06/23 00:24:00;;;;;;;8.10;5.10;;;;;;;24.59;48.79;100575.31;2093649;28;20138;-76
2022/06/23 00:25:33;;;;;;;8.20;5.63;;;;;;;24.61;48.81;100575.25;2095675;28;20420;-77
2022/06/23 00:26:56;;;;;;;10.52;5.85;;;;;;;24.65;48.68;100575.97;2095142;28;20037;-76
2022/06/23 00:28:22;;;;;;;9.85;5.45;;;;;;;24.67;48.63;100572.25;2110065;28;20439;-76
2022/06/23 00:29:46;;;;;;;11.75;5.28;;;;;;;24.69;48.59;100566.75;2106335;28;20044;-77
2022/06/23 00:31:25;;;;;;;9.15;5.35;;;;;;;24.71;48.28;100559.47;2105391;28;20044;-76
2022/06/23 00:32:47;;;;;;;9.70;5.40;;;;;;;24.69;48.32;100564.06;2096379;28;20435;-76
2022/06/23 00:34:17;;;;;;;8.35;5.13;;;;;;;24.65;48.34;100562.47;2113991;28;20050;-76
2022/06/23 00:35:40;;;;;;;7.90;5.63;;;;;;;24.60;48.67;100558.16;2101590;28;20072;-76
2022/06/23 00:37:05;;;;;;;8.43;6.10;;;;;;;24.60;48.60;100546.47;2101345;28;20048;-75
2022/06/23 00:38:31;;;;;;;10.05;5.53;;;;;;;24.56;48.61;100543.03;2102467;28;20129;-76
2022/06/23 00:39:56;;;;;;;7.88;5.38;;;;;;;24.57;48.66;100541.22;2093873;28;20087;-77
2022/06/23 00:41:26;;;;;;;10.65;5.93;;;;;;;24.57;48.49;100543.91;2101268;28;20051;-76
2022/06/23 00:42:54;;;;;;;9.55;4.80;;;;;;;24.56;48.59;100545.72;2094807;28;20052;-76
2022/06/23 00:44:23;;;;;;;10.02;5.43;;;;;;;24.53;48.73;100545.88;2108257;28;20731;-76
2022/06/23 00:45:49;;;;;;;8.23;4.80;;;;;;;24.48;48.61;100547.88;2111243;28;20048;-76
2022/06/23 00:47:19;;;;;;;7.97;4.85;;;;;;;24.38;49.19;100546.56;2104725;28;20048;-76
2022/06/23 00:48:45;;;;;;;9.00;5.13;;;;;;;24.36;49.08;100544.88;2116883;28;20130;-76
2022/06/23 00:50:20;;;;;;;13.80;5.35;;;;;;;24.36;49.27;100545.75;2097168;28;20048;-76
2022/06/23 00:51:47;;;;;;;10.45;5.85;;;;;;;24.34;49.04;100547.66;2109745;28;20097;-76
2022/06/23 00:53:21;;;;;;;10.52;5.57;;;;;;;24.37;49.24;100544.81;2110700;28;20043;-76
2022/06/23 00:54:51;;;;;;;10.38;5.65;;;;;;;24.41;49.23;100548.25;2098438;28;20459;-76
2022/06/23 00:56:25;;;;;;;9.35;4.90;;;;;;;24.41;48.80;100551.84;2111381;28;20566;-76
2022/06/23 00:57:51;;;;;;;9.88;5.75;;;;;;;24.39;48.93;100551.03;2106844;28;20483;-76
2022/06/23 00:59:17;;;;;;;7.55;5.35;;;;;;;24.40;48.82;100543.81;2101770;28;20098;-76
2022/06/23 01:00:42;;;;;;;9.60;5.32;;;;;;;24.40;49.00;100549.22;2102332;28;20056;-76
2022/06/23 01:02:09;;;;;;;8.18;5.10;;;;;;;24.41;48.95;100545.56;2102595;28;20143;-76
2022/06/23 01:03:34;;;;;;;9.50;6.20;;;;;;;24.39;49.01;100548.31;2104571;28;20040;-76
2022/06/23 01:05:02;;;;;;;8.43;5.47;;;;;;;24.37;48.97;100547.50;2102167;28;20495;-77
2022/06/23 01:06:30;;;;;;;8.77;5.32;;;;;;;24.34;49.21;100544.97;2094469;28;20053;-76
2022/06/23 01:08:00;;;;;;;13.52;5.55;;;;;;;24.34;49.27;100544.09;2108664;28;20507;-77
2022/06/23 01:09:27;;;;;;;7.70;5.10;;;;;;;24.30;49.22;100537.94;2109731;28;20666;-76
2022/06/23 01:10:58;;;;;;;8.75;5.03;;;;;;;24.32;49.21;100538.75;2117437;28;20527;-76
2022/06/23 01:12:28;;;;;;;14.07;6.82;;;;;;;24.33;49.04;100545.91;2099853;28;20129;-77
2022/06/23 01:13:57;;;;;;;9.63;5.32;;;;;;;24.28;49.10;100538.97;2111630;28;20052;-77
2022/06/23 01:15:28;;;;;;;9.38;5.07;;;;;;;24.24;49.22;100538.19;2107024;28;20044;-77
2022/06/23 01:16:53;;;;;;;8.15;5.32;;;;;;;24.26;49.22;100544.41;2110045;28;20074;-77
2022/06/23 01:18:24;;;;;;;7.68;4.85;;;;;;;24.23;49.23;100541.84;2111244;28;20079;-76
2022/06/23 01:20:03;;;;;;;10.02;5.97;;;;;;;24.23;49.16;100537.31;2104276;28;20052;-77
2022/06/23 01:21:31;;;;;;;7.15;5.00;;;;;;;24.25;49.25;100537.25;2113849;28;20040;-76
2022/06/23 01:23:04;;;;;;;8.88;4.95;;;;;;;24.27;49.13;100529.09;2107458;28;20112;-77
2022/06/23 01:24:37;;;;;;;7.93;4.72;;;;;;;24.29;48.88;100529.91;2118557;27;20046;-77
2022/06/23 01:26:28;;;;;;;6.97;4.93;;;;;;;24.30;48.95;100543.31;2106618;28;20068;-77
2022/06/23 01:28:01;;;;;;;7.38;5.05;;;;;;;24.30;48.91;100537.06;2105970;28;20107;-77
2022/06/23 01:29:30;;;;;;;6.70;4.32;;;;;;;24.28;48.85;100529.03;2106876;28;20163;-76
2022/06/23 01:30:56;;;;;;;10.38;4.90;;;;;;;24.26;49.00;100535.44;2103610;28;20040;-76
2022/06/23 01:32:24;;;;;;;8.50;4.68;;;;;;;24.24;49.00;100530.09;2086985;28;20053;-76
2022/06/23 01:33:51;;;;;;;6.82;4.85;;;;;;;24.23;49.02;100533.75;2112198;27;20088;-76
2022/06/23 01:35:17;;;;;;;9.68;4.80;;;;;;;24.23;49.21;100525.66;2105228;28;20066;-76
2022/06/23 01:36:44;;;;;;;7.07;5.13;;;;;;;24.27;49.21;100537.19;2104774;28;20227;-77
2022/06/23 01:38:15;;;;;;;8.65;4.88;;;;;;;24.28;49.05;100528.16;2106278;28;20052;-76
2022/06/23 01:39:45;;;;;;;8.25;4.90;;;;;;;24.25;49.12;100533.69;2104072;28;20048;-76
2022/06/23 01:41:13;;;;;;;7.40;4.95;;;;;;;24.21;49.20;100528.44;2104669;28;20051;-76
2022/06/23 01:42:44;;;;;;;7.05;4.63;;;;;;;24.23;48.99;100531.94;2105901;28;20086;-76
2022/06/23 01:44:16;;;;;;;7.70;4.75;;;;;;;24.22;49.10;100529.28;2120864;27;20178;-76
2022/06/23 01:45:43;;;;;;;7.05;4.60;;;;;;;24.19;49.12;100526.75;2106485;28;20452;-77
2022/06/23 01:47:18;;;;;;;8.35;5.10;;;;;;;24.19;49.17;100527.63;2103732;28;20508;-77
2022/06/23 01:48:55;;;;;;;8.10;5.05;;;;;;;24.18;49.12;100535.75;2106772;28;20465;-76
2022/06/23 01:50:38;;;;;;;6.25;4.45;;;;;;;24.15;49.02;100533.19;2096647;28;20045;-77
2022/06/23 01:52:10;;;;;;;7.97;4.63;;;;;;;24.13;49.10;100532.38;2111092;28;20031;-79
2022/06/23 01:53:34;;;;;;;8.95;4.70;;;;;;;24.12;49.07;100527.91;2095819;28;20053;-76
2022/06/23 01:55:01;;;;;;;9.88;4.88;;;;;;;24.16;49.09;100530.41;2116938;27;20050;-76
2022/06/23 01:56:35;;;;;;;8.05;4.80;;;;;;;24.20;48.97;100520.41;2107605;28;20185;-76
2022/06/23 01:58:02;;;;;;;7.72;5.00;;;;;;;24.21;48.76;100520.34;2113238;28;20067;-76
2022/06/23 01:59:55;;;;;;;9.50;4.72;;;;;;;24.19;48.89;100524.94;2112440;28;20052;-76
2022/06/23 02:01:25;;;;;;;8.30;4.85;;;;;;;24.17;48.87;100520.50;2113856;28;20043;-76
2022/06/23 02:02:56;;;;;;;7.47;4.55;;;;;;;24.19;48.82;100518.66;2100612;28;20041;-76
2022/06/23 02:04:22;;;;;;;8.13;4.45;;;;;;;24.22;48.72;100521.19;2110746;27;20074;-77
2022/06/23 02:05:50;;;;;;;7.47;5.15;;;;;;;24.24;48.96;100524.72;2111390;28;20051;-76
2022/06/23 02:07:33;;;;;;;8.77;5.00;;;;;;;24.23;48.78;100528.34;2103676;28;20048;-77
2022/06/23 02:09:04;;;;;;;7.47;5.68;;;;;;;24.21;48.78;100520.34;2097505;28;20155;-77
2022/06/23 02:10:31;;;;;;;6.45;4.28;;;;;;;24.22;48.86;100522.06;2105531;28;20075;-76
2022/06/23 02:11:54;;;;;;;8.70;4.82;;;;;;;24.22;48.93;100521.19;2103692;28;20044;-77
2022/06/23 02:13:23;;;;;;;8.43;4.68;;;;;;;24.21;48.79;100528.44;2107919;28;20063;-76
2022/06/23 02:14:55;;;;;;;8.55;4.45;;;;;;;24.18;48.99;100517.75;2110381;28;20044;-77
2022/06/23 02:16:22;;;;;;;7.43;5.53;;;;;;;24.18;48.89;100523.13;2104277;28;20098;-76
2022/06/23 02:17:48;;;;;;;5.97;3.83;;;;;;;24.19;48.92;100519.53;2106775;28;20109;-76
2022/06/23 02:19:17;;;;;;;8.50;4.90;;;;;;;24.20;48.93;100517.72;2102000;28;20392;-77
2022/06/23 02:20:45;;;;;;;7.78;4.45;;;;;;;24.19;48.92;100521.34;2103950;28;20135;-76
2022/06/23 02:22:15;;;;;;;9.15;4.45;;;;;;;24.21;48.71;100524.88;2105269;28;20134;-76
2022/06/23 02:23:40;;;;;;;8.30;4.88;;;;;;;24.25;48.92;100528.28;2119377;27;20043;-76
2022/06/23 02:25:12;;;;;;;8.27;5.25;;;;;;;24.23;48.94;100525.66;2110073;28;20086;-76
2022/06/23 02:26:41;;;;;;;8.18;4.80;;;;;;;24.23;48.79;100523.84;2103835;28;20055;-76
2022/06/23 02:28:11;;;;;;;6.85;4.50;;;;;;;24.23;48.79;100521.13;2103759;28;20040;-76
2022/06/23 02:29:42;;;;;;;7.88;4.43;;;;;;;24.23;48.85;100528.34;2116950;27;20055;-76
2022/06/23 02:31:21;;;;;;;7.40;4.57;;;;;;;24.25;48.85;100526.47;2114084;28;20471;-76
2022/06/23 02:32:57;;;;;;;9.10;4.78;;;;;;;24.25;48.60;100522.91;2110193;28;20055;-77
2022/06/23 02:34:25;;;;;;;8.02;4.35;;;;;;;24.22;48.66;100526.59;2103625;28;20082;-76
2022/06/23 02:35:58;;;;;;;7.35;4.72;;;;;;;24.17;48.65;100526.78;2108703;27;20051;-77
2022/06/23 02:37:53;;;;;;;7.68;4.78;;;;;;;24.09;49.10;100520.84;2111550;28;20047;-76
2022/06/23 02:39:19;;;;;;;10.00;5.25;;;;;;;24.05;49.19;100523.75;2079889;28;20049;-76
2022/06/23 02:40:45;;;;;;;9.13;5.10;;;;;;;24.05;49.07;100530.00;2093414;28;20056;-76
2022/06/23 02:42:21;;;;;;;8.80;5.32;;;;;;;24.09;49.16;100538.88;2098646;28;20048;-76
2022/06/23 02:43:49;;;;;;;7.93;4.32;;;;;;;24.08;49.03;100529.00;2106813;28;20058;-76
2022/06/23 02:45:41;;;;;;;7.60;4.28;;;;;;;24.07;49.18;100529.94;2117462;27;20050;-76
2022/06/23 02:47:22;;;;;;;8.20;4.20;;;;;;;24.05;49.09;100538.09;2112821;28;20055;-77
2022/06/23 02:48:58;;;;;;;7.03;4.28;;;;;;;24.06;49.00;100533.59;2112467;28;20044;-76
2022/06/23 02:50:33;;;;;;;8.52;4.45;;;;;;;24.08;48.99;100535.28;2112591;28;20084;-76
2022/06/23 02:52:31;;;;;;;8.43;4.60;;;;;;;24.11;49.10;100531.56;2110884;28;20047;-77
2022/06/23 02:54:29;;;;;;;8.05;4.80;;;;;;;24.09;48.88;100531.63;2110390;27;20085;-76
2022/06/23 02:56:14;;;;;;;9.32;4.63;;;;;;;24.04;49.08;100549.84;2100276;28;20091;-77
2022/06/23 02:57:44;;;;;;;8.90;4.50;;;;;;;24.02;49.28;100545.47;2096734;28;20076;-77
2022/06/23 02:59:14;;;;;;;8.85;4.38;;;;;;;24.04;48.94;100543.56;2120142;27;20051;-76
2022/06/23 03:00:50;;;;;;;6.90;4.40;;;;;;;24.06;49.00;100538.97;2106977;28;20043;-76
2022/06/23 03:02:21;;;;;;;9.38;4.53;;;;;;;24.09;48.80;100544.25;2112915;28;20154;-76
2022/06/23 03:03:49;;;;;;;8.82;5.55;;;;;;;24.11;48.43;100553.13;2107858;28;20261;-76
2022/06/23 03:05:19;;;;;;;6.35;4.40;;;;;;;24.15;48.38;100544.00;2111854;28;20075;-77
2022/06/23 03:06:46;;;;;;;7.70;4.30;;;;;;;24.15;48.21;100547.56;2112114;28;20117;-77
2022/06/23 03:08:19;;;;;;;8.10;4.75;;;;;;;24.12;48.44;100555.78;2104730;28;20066;-77
2022/06/23 03:09:41;;;;;;;;;;;;;;;24.10;48.63;100546.88;2105759;28;20580;-77
2022/06/23 03:11:05;;;;;;;;;;;;;;;24.10;48.48;100551.38;2094545;28;19931;-77
2022/06/23 03:12:34;;;;;;;13.38;4.80;;;;;;;24.13;48.12;100551.25;2111468;27;19923;-77
2022/06/23 03:13:59;;;;;;;14.13;5.72;;;;;;;24.18;47.79;100544.72;2111798;28;20056;-77
2022/06/23 03:15:28;;;;;;;14.40;4.70;;;;;;;24.23;47.61;100547.25;2103860;28;20043;-77
2022/06/23 03:16:55;;;;;;;12.55;4.30;;;;;;;24.29;47.53;100546.09;2105670;28;20495;-77
2022/06/23 03:18:23;;;;;;;6.50;4.20;;;;;;;24.35;47.10;100549.38;2105231;28;20071;-77
2022/06/23 03:19:56;;;;;;;10.75;4.40;;;;;;;24.42;47.07;100547.28;2104392;28;20040;-77
2022/06/23 03:21:23;;;;;;;11.82;4.45;;;;;;;24.46;46.93;100548.94;2105276;28;20105;-77
2022/06/23 03:22:52;;;;;;;8.57;4.88;;;;;;;24.50;47.05;100548.72;2098821;28;20397;-76
2022/06/23 03:24:22;;;;;;;7.63;4.65;;;;;;;24.55;46.83;100545.78;2087073;28;20075;-77
2022/06/23 03:25:51;;;;;;;9.45;4.55;;;;;;;24.58;46.74;100549.25;2110102;28;20060;-76
2022/06/23 03:27:22;;;;;;;8.70;4.45;;;;;;;24.57;46.95;100549.31;2106926;28;20048;-76
2022/06/23 03:28:52;;;;;;;9.32;4.50;;;;;;;24.55;46.95;100546.66;2108501;28;20586;-76
2022/06/23 03:30:22;;;;;;;8.73;3.90;;;;;;;24.60;47.08;100546.47;2103217;28;20131;-76
2022/06/23 03:31:55;;;;;;;9.20;3.90;;;;;;;24.68;46.95;100552.38;2111564;28;20082;-76
2022/06/23 03:33:25;;;;;;;7.78;4.40;;;;;;;24.75;46.65;100547.56;2099205;28;20044;-76
2022/06/23 03:34:51;;;;;;;7.35;3.85;;;;;;;24.83;46.61;100553.50;2101361;28;20492;-76
2022/06/23 03:36:24;;;;;;;8.65;4.47;;;;;;;24.95;46.20;100556.53;2119630;27;20175;-77
2022/06/23 03:37:57;;;;;;;11.30;4.43;;;;;;;25.06;46.08;100555.19;2106120;28;20500;-77
2022/06/23 03:42:56;;;;;;;10.88;4.13;;;;;;;25.39;45.39;100554.44;2113650;28;20052;-76
2022/06/23 03:44:24;;;;;;;6.50;3.95;;;;;;;25.52;45.45;100557.41;2103481;28;20039;-76
2022/06/23 03:45:55;;;;;;;7.07;3.80;;;;;;;25.64;44.83;100561.34;2100845;28;20067;-76
2022/06/23 03:47:24;;;;;;;8.68;4.00;;;;;;;25.74;44.61;100559.94;2103507;28;20063;-76
2022/06/23 03:48:54;;;;;;;8.45;3.85;;;;;;;25.80;44.97;100557.78;2102459;28;20433;-76
2022/06/23 03:50:23;;;;;;;6.72;3.88;;;;;;;25.92;44.76;100553.63;2102939;28;20059;-76
2022/06/23 03:51:50;;;;;;;8.90;4.32;;;;;;;26.04;44.76;100549.41;2101622;28;20036;-77
2022/06/23 03:53:17;;;;;;;6.38;3.80;;;;;;;26.16;44.70;100554.16;2107996;28;20100;-76
2022/06/23 03:54:47;;;;;;;9.98;4.10;;;;;;;26.31;44.38;100556.13;2105235;28;20071;-76
2022/06/23 03:56:17;;;;;;;9.93;4.22;;;;;;;26.45;44.23;100555.38;2094717;28;20080;-76
2022/06/23 03:57:44;;;;;;;6.28;3.50;;;;;;;26.59;44.27;100556.38;2094819;28;20052;-76
2022/06/23 03:59:15;;;;;;;5.75;3.67;;;;;;;26.71;43.86;100553.97;2103425;28;20134;-76
2022/06/23 04:00:43;;;;;;;10.35;4.25;;;;;;;26.85;44.08;100557.66;2100870;28;20543;-76
2022/06/23 04:02:13;;;;;;;14.73;4.60;;;;;;;27.01;43.79;100565.00;2104202;28;20134;-76
2022/06/23 04:03:42;;;;;;;8.52;3.80;;;;;;;27.13;43.82;100557.03;2106599;28;20135;-77
2022/06/23 04:05:17;;;;;;;10.15;3.70;;;;;;;27.27;43.54;100559.84;2110567;28;20047;-75
2022/06/23 04:06:42;;;;;;;7.70;3.90;;;;;;;27.40;43.41;100548.31;2109701;28;20134;-76
2022/06/23 04:08:05;;;;;;;6.47;3.90;;;;;;;27.54;43.48;100553.84;2108910;28;20150;-75
2022/06/23 04:09:32;;;;;;;7.68;4.05;;;;;;;27.69;43.68;100558.41;2102377;28;20583;-76
2022/06/23 04:10:58;;;;;;;10.95;3.72;;;;;;;27.83;43.50;100558.44;2109149;28;20055;-76
2022/06/23 04:12:20;;;;;;;5.82;3.67;;;;;;;27.95;43.13;100562.28;2111203;28;20139;-77
2022/06/23 04:13:42;;;;;;;6.63;3.83;;;;;;;28.10;42.69;100569.47;2109356;28;20210;-76
2022/06/23 04:15:10;;;;;;;8.45;3.92;;;;;;;28.24;42.47;100575.00;2108640;28;20077;-76
2022/06/23 04:16:33;;;;;;;6.68;4.20;;;;;;;28.36;42.41;100566.09;2094846;28;20101;-77
2022/06/23 04:18:02;;;;;;;10.23;4.43;;;;;;;28.53;42.09;100565.06;2109910;28;20519;-76
2022/06/23 04:19:27;;;;;;;8.68;3.78;;;;;;;28.72;41.77;100567.50;2119935;28;20142;-76
2022/06/23 04:20:55;;;;;;;7.97;3.42;;;;;;;28.90;41.37;100569.97;2096471;28;20052;-76
2022/06/23 04:22:22;;;;;;;9.88;4.55;;;;;;;29.08;41.36;100570.63;2111182;28;20055;-76
2022/06/23 04:23:49;;;;;;;10.80;4.10;;;;;;;29.28;41.04;100572.94;2106005;28;20431;-77
2022/06/23 04:25:16;;;;;;;8.45;3.80;;;;;;;29.46;40.83;100568.19;2102535;28;20093;-76
2022/06/23 04:26:42;;;;;;;7.72;3.53;;;;;;;29.63;40.19;100573.38;2119588;28;20051;-76
2022/06/23 04:28:05;;;;;;;7.22;3.35;;;;;;;29.82;40.08;100572.16;2108783;28;20507;-76
2022/06/23 04:29:30;;;;;;;7.35;3.70;;;;;;;30.01;40.03;100568.09;2094816;28;20083;-76
2022/06/23 04:30:57;;;;;;;7.60;3.60;;;;;;;30.21;40.05;100569.47;2102805;28;20049;-76
2022/06/23 04:32:23;;;;;;;8.05;4.15;;;;;;;30.39;39.58;100578.22;2094528;28;20040;-76
2022/06/23 04:33:48;;;;;;;7.10;3.17;;;;;;;30.56;39.22;100577.94;2094211;28;20064;-76
2022/06/23 04:35:15;;;;;;;7.35;3.85;;;;;;;30.74;38.63;100583.94;2116272;28;20066;-76
2022/06/23 04:36:44;;;;;;;5.90;3.58;;;;;;;30.92;38.40;100592.69;2113319;28;20754;-76
2022/06/23 04:38:15;;;;;;;9.10;3.67;;;;;;;31.12;38.26;100589.41;2111171;28;20074;-76
2022/06/23 04:39:41;;;;;;;13.32;4.00;;;;;;;31.35;37.91;100587.72;2096636;28;20400;-75
2022/06/23 04:41:12;;;;;;;5.38;3.60;;;;;;;31.56;37.59;100587.03;2104926;28;20036;-76
2022/06/23 04:42:35;;;;;;;7.15;3.85;;;;;;;31.79;37.46;100581.72;2111304;28;20098;-76
2022/06/23 04:44:03;;;;;;;9.40;3.80;;;;;;;32.02;36.98;100589.03;2106564;28;20135;-76
2022/06/23 04:45:48;;;;;;;7.60;3.63;;;;;;;32.25;37.11;100592.75;2098696;28;20113;-76
2022/06/23 04:47:17;;;;;;;6.80;3.47;;;;;;;32.51;36.60;100593.44;2113950;28;20032;-76
2022/06/23 04:48:47;;;;;;;11.10;4.60;;;;;;;32.72;37.05;100595.41;2099527;28;20056;-76
2022/06/23 04:50:13;;;;;;;7.88;4.25;;;;;;;32.98;36.42;100592.44;2103799;28;20072;-75
2022/06/23 04:51:40;;;;;;;10.88;3.85;;;;;;;33.21;36.32;100592.34;2121329;27;20051;-76
2022/06/23 04:53:03;;;;;;;10.90;4.13;;;;;;;33.44;36.14;100593.22;2099538;28;20041;-76
2022/06/23 04:54:28;;;;;;;6.45;3.25;;;;;;;33.62;35.92;100590.81;2106061;28;20047;-76
2022/06/23 04:56:03;;;;;;;10.07;3.70;;;;;;;33.74;35.60;100594.44;2095684;28;20044;-76
2022/06/23 04:57:32;;;;;;;8.90;3.58;;;;;;;33.81;35.25;100595.63;2113985;28;20487;-76
2022/06/23 04:58:59;;;;;;;7.82;3.47;;;;;;;34.03;34.94;100594.69;2106580;28;20415;-77
2022/06/23 05:00:24;;;;;;;8.98;3.72;;;;;;;34.28;34.70;100594.38;2095934;28;20048;-77
2022/06/23 05:01:49;;;;;;;10.23;3.65;;;;;;;34.53;34.22;100593.13;2095510;28;20079;-76
2022/06/23 05:03:17;;;;;;;9.13;3.60;;;;;;;34.77;33.68;100593.75;2107308;28;20074;-76
2022/06/23 05:04:45;;;;;;;8.57;3.60;;;;;;;35.03;33.63;100607.91;2107061;28;20574;-76
2022/06/23 05:06:13;;;;;;;6.97;3.33;;;;;;;35.25;33.15;100601.41;2104078;28;20175;-77
2022/06/23 05:07:45;;;;;;;11.13;3.60;;;;;;;35.43;32.71;100606.09;2105363;28;20067;-77
2022/06/23 05:09:14;;;;;;;7.10;3.35;;;;;;;35.62;32.40;100599.78;2096801;28;20067;-76
2022/06/23 05:10:45;;;;;;;8.30;3.30;;;;;;;35.83;31.88;100606.09;2112635;27;20092;-76
2022/06/23 05:12:19;;;;;;;11.05;3.28;;;;;;;36.01;31.48;100599.88;2119973;27;20193;-76
2022/06/23 05:13:46;;;;;;;7.80;3.35;;;;;;;36.22;31.43;100601.50;2103788;28;20538;-77
2022/06/23 05:15:17;;;;;;;12.85;3.83;;;;;;;36.43;30.83;100606.00;2110205;28;20040;-76
2022/06/23 05:16:41;;;;;;;10.23;3.55;;;;;;;36.59;30.05;100603.50;2111528;28;20043;-76
2022/06/23 05:18:10;;;;;;;11.65;3.20;;;;;;;36.72;29.08;100604.09;2097484;28;20044;-77
2022/06/23 05:19:36;;;;;;;10.68;3.40;;;;;;;36.87;28.67;100608.13;2096111;28;20082;-76
2022/06/23 05:21:02;;;;;;;7.95;3.55;;;;;;;37.00;29.06;100616.03;2095686;28;20052;-76
2022/06/23 05:22:28;;;;;;;9.30;3.40;;;;;;;37.13;28.57;100611.09;2101920;28;20059;-77
2022/06/23 05:23:59;;;;;;;9.38;3.33;;;;;;;37.28;28.09;100617.00;2102897;28;20562;-77
2022/06/23 05:25:38;;;;;;;11.15;3.35;;;;;;;37.41;27.75;100610.13;2120237;27;20089;-76
2022/06/23 05:27:02;;;;;;;11.80;3.30;;;;;;;37.57;27.85;100603.97;2097829;28;20048;-77
2022/06/23 05:28:29;;;;;;;9.68;3.50;;;;;;;37.74;27.74;100607.78;2092463;28;20075;-77
2022/06/23 05:29:59;;;;;;;11.48;3.00;;;;;;;37.92;27.63;100605.91;2099697;28;20119;-76
2022/06/23 05:31:27;;;;;;;12.63;3.10;;;;;;;38.06;27.40;100610.94;2099143;28;20067;-76
2022/06/23 05:32:52;;;;;;;6.53;2.70;;;;;;;38.25;26.93;100601.63;2104016;28;20043;-77
2022/06/23 05:34:22;;;;;;;7.90;3.10;;;;;;;38.39;26.45;100605.72;2100984;28;20064;-77
2022/06/23 05:35:48;;;;;;;10.10;4.10;;;;;;;38.51;26.21;100613.63;2094233;28;20056;-77
2022/06/23 05:37:16;;;;;;;10.85;3.47;;;;;;;38.63;26.20;100604.03;2095563;28;20531;-77
2022/06/23 05:38:47;;;;;;;7.55;3.70;;;;;;;38.82;25.51;100608.50;2118035;27;20435;-77
2022/06/23 05:40:22;;;;;;;10.43;3.72;;;;;;;38.90;26.01;100603.03;2108919;28;20131;-77
2022/06/23 05:41:48;;;;;;;10.32;3.42;;;;;;;39.03;26.73;100610.91;2104360;28;20048;-77
2022/06/23 05:43:13;;;;;;;7.15;3.08;;;;;;;39.19;27.23;100615.66;2090746;28;20114;-77
2022/06/23 05:44:48;;;;;;;12.15;3.33;;;;;;;39.28;26.90;100607.25;2108144;28;20055;-77
2022/06/23 05:46:18;;;;;;;9.20;3.25;;;;;;;39.34;26.47;100614.88;2112930;28;20044;-76
2022/06/23 05:47:42;;;;;;;8.50;2.65;;;;;;;39.40;25.49;100613.38;2102000;28;20052;-77
2022/06/23 05:49:14;;;;;;;11.60;3.28;;;;;;;39.56;24.76;100613.44;2109750;28;20131;-76
2022/06/23 05:50:45;;;;;;;15.68;3.47;;;;;;;39.70;24.14;100610.06;2111009;28;20051;-77
2022/06/23 05:52:12;;;;;;;8.20;3.20;;;;;;;39.83;24.64;100606.84;2110851;28;20110;-77
2022/06/23 05:53:40;;;;;;;10.30;3.42;;;;;;;39.97;24.29;100616.38;2102851;28;20412;-77
2022/06/23 05:55:13;;;;;;;7.45;2.58;;;;;;;40.10;23.94;100611.22;2091639;28;20048;-77
2022/06/23 05:56:45;;;;;;;9.95;3.15;;;;;;;40.19;23.98;100612.94;2103477;28;20052;-78
2022/06/23 05:58:16;;;;;;;8.35;2.92;;;;;;;40.28;24.20;100616.63;2098363;28;20131;-77
2022/06/23 05:59:57;;;;;;;10.63;3.78;;;;;;;40.33;24.87;100617.81;2113502;27;20039;-77
2022/06/23 06:01:26;;;;;;;9.17;3.13;;;;;;;40.40;25.10;100623.53;2112892;28;20126;-78
2022/06/23 06:02:53;;;;;;;7.35;2.92;;;;;;;40.45;25.12;100626.66;2108762;28;20327;-77
2022/06/23 06:04:22;;;;;;;7.20;2.72;;;;;;;40.51;24.92;100625.97;2110912;28;20071;-78
2022/06/23 06:05:49;;;;;;;6.22;2.85;;;;;;;40.56;24.69;100629.09;2111416;28;20041;-77
2022/06/23 06:07:15;;;;;;;10.20;3.22;;;;;;;40.50;25.17;100629.78;2111371;28;20461;-77
2022/06/23 06:10:24;;;;;;;9.50;3.42;;;;;;;40.27;26.49;100632.34;2107445;27;20139;-78
2022/06/23 06:11:51;;;;;;;9.80;3.20;;;;;;;40.24;26.47;100635.44;2097126;28;20052;-78
2022/06/23 06:13:16;;;;;;;10.95;3.10;;;;;;;40.21;26.75;100636.66;2107739;27;20090;-78
2022/06/23 06:14:41;;;;;;;6.45;3.10;;;;;;;40.26;26.87;100643.59;2097231;28;20663;-77
2022/06/23 06:16:05;;;;;;;10.25;3.45;;;;;;;40.34;27.06;100630.63;2103363;28;20055;-77
2022/06/23 06:17:30;;;;;;;7.93;3.38;;;;;;;40.41;26.50;100636.34;2097344;28;20044;-78
2022/06/23 06:18:54;;;;;;;9.00;2.97;;;;;;;40.43;26.21;100639.81;2107081;28;20517;-77
2022/06/23 06:20:17;;;;;;;7.22;3.00;;;;;;;40.40;26.13;100645.69;2104440;28;20090;-77
2022/06/23 06:21:39;;;;;;;10.43;3.10;;;;;;;40.36;26.00;100642.41;2100196;28;20100;-77
2022/06/23 06:23:07;;;;;;;7.38;3.05;;;;;;;40.35;26.25;100650.88;2102786;28;20480;-78
2022/06/23 06:24:37;;;;;;;7.07;3.22;;;;;;;40.29;26.15;100651.56;2112058;28;20051;-77
2022/06/23 06:26:00;;;;;;;7.18;2.90;;;;;;;40.21;26.25;100644.94;2104086;28;20040;-78
2022/06/23 06:27:24;;;;;;;6.60;3.10;;;;;;;40.19;26.11;100647.00;2119532;27;20936;-77
2022/06/23 06:28:47;;;;;;;4.68;3.05;;;;;;;40.13;25.94;100647.69;2104967;28;20485;-77
2022/06/23 06:30:16;;;;;;;7.65;3.50;;;;;;;40.09;26.11;100642.69;2100792;28;20075;-77
2022/06/23 06:31:43;;;;;;;7.43;2.70;;;;;;;40.08;26.11;100647.34;2087351;28;20139;-77
2022/06/23 06:33:06;;;;;;;4.72;2.88;;;;;;;39.98;26.18;100646.63;2105116;28;20036;-76
2022/06/23 06:34:34;;;;;;;5.22;2.80;;;;;;;39.93;26.63;100648.16;2103604;28;20540;-76
2022/06/23 06:35:56;;;;;;;7.38;4.25;;;;;;;39.98;26.95;100648.50;2110256;28;20131;-77
2022/06/23 06:37:21;;;;;;;6.20;2.80;;;;;;;40.04;26.72;100653.41;2109066;28;20052;-77
2022/06/23 06:38:43;;;;;;;8.23;3.10;;;;;;;39.98;26.28;100648.50;2105728;28;20103;-77
2022/06/23 06:40:07;;;;;;;7.75;3.25;;;;;;;39.96;25.87;100650.59;2113890;27;20766;-76
2022/06/23 06:41:31;;;;;;;6.43;2.70;;;;;;;39.99;25.80;100653.88;2107521;28;20048;-77
2022/06/23 06:43:00;;;;;;;8.93;3.00;;;;;;;39.99;25.70;100653.88;2102893;28;20143;-77
2022/06/23 06:44:22;;;;;;;13.80;2.90;;;;;;;39.94;25.86;100645.22;2103452;28;20082;-77
2022/06/23 06:45:45;;;;;;;6.63;3.10;;;;;;;39.92;25.76;100658.34;2102638;28;20449;-77
2022/06/23 06:47:09;;;;;;;6.75;2.85;;;;;;;39.75;26.09;100651.00;2093506;28;20060;-77
2022/06/23 06:48:35;;;;;;;6.57;2.92;;;;;;;39.56;26.14;100660.44;2102530;28;20058;-78
2022/06/23 06:50:03;;;;;;;4.63;2.70;;;;;;;39.34;26.29;100667.38;2120206;27;20482;-79
2022/06/23 06:51:29;;;;;;;7.05;2.90;;;;;;;39.20;26.24;100667.13;2100321;28;20067;-78
2022/06/23 06:52:51;;;;;;;4.57;2.75;;;;;;;39.01;26.58;100669.06;2106744;27;20048;-80
2022/06/23 06:54:17;;;;;;;5.50;3.15;;;;;;;38.88;26.99;100667.72;2101680;28;20051;-78
2022/06/23 06:55:47;;;;;;;4.72;3.22;;;;;;;38.74;27.11;100666.41;2109376;28;20052;-79
2022/06/23 06:57:14;;;;;;;8.23;3.40;;;;;;;38.47;27.49;100670.09;2106600;28;20088;-79
2022/06/23 06:58:46;;;;;;;6.07;3.10;;;;;;;38.37;28.18;100665.72;2103378;28;20139;-77